sensor_id;sensor_type;location;lat;lon;timestamp;temperature;humidity
12460;DHT22;6295;49.452;8.466;2023-09-12T03:14:58;18.50;99.90
12460;DHT22;6295;49.452;8.466;2023-09-12T03:19:00;18.50;99.90
12460;DHT22;6295;49.452;8.466;2023-09-12T03:23:03;18.50;99.90
12460;DHT22;6295;49.452;8.466;2023-09-12T03:27:05;18.50;99.90
12460;DHT22;6295;49.452;8.466;2023-09-12T03:31:10;18.60;99.90
12460;DHT22;6295;49.452;8.466;2023-09-12T03:35:13;18.60;99.90
12460;DHT22;6295;49.452;8.466;2023-09-12T03:39:15;18.60;99.90
12460;DHT22;6295;49.452;8.466;2023-09-12T03:43:17;18.60;99.90
12460;DHT22;6295;49.452;8.466;2023-09-12T03:47:20;18.70;99.90
12460;DHT22;6295;49.452;8.466;2023-09-12T03:59:27;18.80;99.90
12460;DHT22;6295;49.452;8.466;2023-09-12T04:03:30;18.80;99.90
12460;DHT22;6295;49.452;8.466;2023-09-12T04:07:32;18.80;99.90
12460;DHT22;6295;49.452;8.466;2023-09-12T04:15:37;18.90;99.90
12460;DHT22;6295;49.452;8.466;2023-09-12T04:19:40;18.90;99.90
12460;DHT22;6295;49.452;8.466;2023-09-12T04:23:42;18.90;99.90
12460;DHT22;6295;49.452;8.466;2023-09-12T04:27:44;18.90;99.90
12460;DHT22;6295;49.452;8.466;2023-09-12T04:31:47;18.90;99.90
12460;DHT22;6295;49.452;8.466;2023-09-12T04:35:50;18.90;99.90
12460;DHT22;6295;49.452;8.466;2023-09-12T04:39:52;19.00;99.90
12460;DHT22;6295;49.452;8.466;2023-09-12T04:43:55;19.00;99.90
12460;DHT22;6295;49.452;8.466;2023-09-12T04:47:59;19.00;99.90
12460;DHT22;6295;49.452;8.466;2023-09-12T04:52:03;19.00;99.90
12460;DHT22;6295;49.452;8.466;2023-09-12T04:56:06;19.00;99.90
12460;DHT22;6295;49.452;8.466;2023-09-12T05:00:11;19.00;99.90
12460;DHT22;6295;49.452;8.466;2023-09-12T05:04:14;19.00;99.90
12460;DHT22;6295;49.452;8.466;2023-09-12T05:08:17;19.00;99.90
12460;DHT22;6295;49.452;8.466;2023-09-12T05:12:20;19.00;99.90
12460;DHT22;6295;49.452;8.466;2023-09-12T05:16:25;19.00;99.90
12460;DHT22;6295;49.452;8.466;2023-09-12T05:20:32;19.00;99.90
12460;DHT22;6295;49.452;8.466;2023-09-12T05:24:36;19.00;99.90
12460;DHT22;6295;49.452;8.466;2023-09-12T05:28:38;19.00;99.90
12460;DHT22;6295;49.452;8.466;2023-09-12T05:32:41;19.00;99.90
12460;DHT22;6295;49.452;8.466;2023-09-12T05:36:43;19.00;99.90
12460;DHT22;6295;49.452;8.466;2023-09-12T05:40:47;19.00;99.90
12460;DHT22;6295;49.452;8.466;2023-09-12T05:44:50;19.00;99.90
12460;DHT22;6295;49.452;8.466;2023-09-12T05:48:54;19.00;99.90
12460;DHT22;6295;49.452;8.466;2023-09-12T05:52:57;19.00;99.90
12460;DHT22;6295;49.452;8.466;2023-09-12T05:57:02;19.10;99.90
12460;DHT22;6295;49.452;8.466;2023-09-12T06:01:04;19.00;99.90
12460;DHT22;6295;49.452;8.466;2023-09-12T06:05:07;19.00;99.90
12460;DHT22;6295;49.452;8.466;2023-09-12T06:09:09;19.00;99.90
12460;DHT22;6295;49.452;8.466;2023-09-12T06:13:13;19.00;99.90
12460;DHT22;6295;49.452;8.466;2023-09-12T06:17:15;19.10;99.90
12460;DHT22;6295;49.452;8.466;2023-09-12T06:21:17;19.10;99.90
12460;DHT22;6295;49.452;8.466;2023-09-12T06:25:20;19.10;99.90
12460;DHT22;6295;49.452;8.466;2023-09-12T06:29:24;19.20;99.90
12460;DHT22;6295;49.452;8.466;2023-09-12T06:33:26;19.20;99.90
12460;DHT22;6295;49.452;8.466;2023-09-12T06:37:29;19.30;99.90
12460;DHT22;6295;49.452;8.466;2023-09-12T06:41:31;19.40;99.90
12460;DHT22;6295;49.452;8.466;2023-09-12T06:45:35;19.50;99.90
12460;DHT22;6295;49.452;8.466;2023-09-12T06:49:38;19.60;99.90
12460;DHT22;6295;49.452;8.466;2023-09-12T06:53:40;19.70;99.90
12460;DHT22;6295;49.452;8.466;2023-09-12T06:57:44;19.80;99.90
12460;DHT22;6295;49.452;8.466;2023-09-12T07:01:49;19.90;99.90
12460;DHT22;6295;49.452;8.466;2023-09-12T07:05:52;20.00;99.90
12460;DHT22;6295;49.452;8.466;2023-09-12T07:09:54;20.10;99.90
12460;DHT22;6295;49.452;8.466;2023-09-12T07:13:56;20.20;99.90
12460;DHT22;6295;49.452;8.466;2023-09-12T07:18:01;20.30;99.90
12460;DHT22;6295;49.452;8.466;2023-09-12T07:22:04;20.40;99.90
12460;DHT22;6295;49.452;8.466;2023-09-12T07:26:11;20.50;99.90
12460;DHT22;6295;49.452;8.466;2023-09-12T07:34:17;20.70;99.90
12460;DHT22;6295;49.452;8.466;2023-09-12T07:38:20;20.90;99.90
12460;DHT22;6295;49.452;8.466;2023-09-12T07:42:23;21.00;99.90
12460;DHT22;6295;49.452;8.466;2023-09-12T07:46:26;21.10;99.90
12460;DHT22;6295;49.452;8.466;2023-09-12T07:50:30;21.20;99.90
12460;DHT22;6295;49.452;8.466;2023-09-12T07:54:33;21.30;99.90
12460;DHT22;6295;49.452;8.466;2023-09-12T07:58:35;21.50;99.90
12460;DHT22;6295;49.452;8.466;2023-09-12T08:02:37;21.70;99.90
12460;DHT22;6295;49.452;8.466;2023-09-12T08:06:43;21.80;99.90
12460;DHT22;6295;49.452;8.466;2023-09-12T08:10:49;22.00;99.90
12460;DHT22;6295;49.452;8.466;2023-09-12T08:14:52;22.10;99.90
12460;DHT22;6295;49.452;8.466;2023-09-12T08:18:55;22.30;99.90
12460;DHT22;6295;49.452;8.466;2023-09-12T08:23:02;22.40;99.90
12460;DHT22;6295;49.452;8.466;2023-09-12T08:27:07;22.60;99.90
12460;DHT22;6295;49.452;8.466;2023-09-12T08:31:12;22.70;99.90
12460;DHT22;6295;49.452;8.466;2023-09-12T08:35:18;22.80;99.90
12460;DHT22;6295;49.452;8.466;2023-09-12T08:39:27;23.00;99.90
12460;DHT22;6295;49.452;8.466;2023-09-12T08:43:32;23.10;99.90
12460;DHT22;6295;49.452;8.466;2023-09-12T08:47:39;23.30;99.90
12460;DHT22;6295;49.452;8.466;2023-09-12T08:51:45;23.40;99.90
12460;DHT22;6295;49.452;8.466;2023-09-12T08:55:52;23.50;99.90
12460;DHT22;6295;49.452;8.466;2023-09-12T08:59:55;23.60;99.90
12460;DHT22;6295;49.452;8.466;2023-09-12T09:03:58;23.70;99.90
12460;DHT22;6295;49.452;8.466;2023-09-12T09:08:00;23.80;99.90
12460;DHT22;6295;49.452;8.466;2023-09-12T09:12:10;23.90;99.90
12460;DHT22;6295;49.452;8.466;2023-09-12T09:16:14;24.00;99.90
12460;DHT22;6295;49.452;8.466;2023-09-12T09:20:22;24.00;99.90
12460;DHT22;6295;49.452;8.466;2023-09-12T09:24:25;24.10;99.90
12460;DHT22;6295;49.452;8.466;2023-09-12T09:28:28;24.30;99.90
12460;DHT22;6295;49.452;8.466;2023-09-12T09:32:30;24.40;99.90
12460;DHT22;6295;49.452;8.466;2023-09-12T09:36:32;24.50;99.90
12460;DHT22;6295;49.452;8.466;2023-09-12T09:40:35;24.60;99.90
12460;DHT22;6295;49.452;8.466;2023-09-12T09:44:40;24.80;99.90
12460;DHT22;6295;49.452;8.466;2023-09-12T09:48:48;24.80;99.90
12460;DHT22;6295;49.452;8.466;2023-09-12T09:52:56;24.90;99.90
12460;DHT22;6295;49.452;8.466;2023-09-12T09:56:58;25.10;99.90
12460;DHT22;6295;49.452;8.466;2023-09-12T10:01:05;25.20;99.90
12460;DHT22;6295;49.452;8.466;2023-09-12T10:05:09;25.30;99.90
12460;DHT22;6295;49.452;8.466;2023-09-12T10:09:13;25.40;99.90
12460;DHT22;6295;49.452;8.466;2023-09-12T10:13:18;25.50;99.90
12460;DHT22;6295;49.452;8.466;2023-09-12T10:17:26;25.60;99.90
12460;DHT22;6295;49.452;8.466;2023-09-12T10:21:32;25.50;99.90
12460;DHT22;6295;49.452;8.466;2023-09-12T10:25:36;25.60;99.90
12460;DHT22;6295;49.452;8.466;2023-09-12T10:29:38;25.60;99.90
12460;DHT22;6295;49.452;8.466;2023-09-12T10:33:42;25.50;99.90
12460;DHT22;6295;49.452;8.466;2023-09-12T10:37:46;25.60;99.90
12460;DHT22;6295;49.452;8.466;2023-09-12T10:41:51;25.60;99.90
12460;DHT22;6295;49.452;8.466;2023-09-12T10:45:55;25.60;99.90
12460;DHT22;6295;49.452;8.466;2023-09-12T10:50:04;25.50;99.90
12460;DHT22;6295;49.452;8.466;2023-09-12T10:54:09;25.50;99.90
12460;DHT22;6295;49.452;8.466;2023-09-12T10:58:14;25.40;99.90
12460;DHT22;6295;49.452;8.466;2023-09-12T11:02:29;25.50;99.90
12460;DHT22;6295;49.452;8.466;2023-09-12T11:06:34;25.50;99.90
12460;DHT22;6295;49.452;8.466;2023-09-12T11:10:36;25.50;99.90
12460;DHT22;6295;49.452;8.466;2023-09-12T11:15:03;25.60;99.90
12460;DHT22;6295;49.452;8.466;2023-09-12T11:19:17;25.80;99.90
12460;DHT22;6295;49.452;8.466;2023-09-12T11:23:23;25.90;99.90
12460;DHT22;6295;49.452;8.466;2023-09-12T11:27:31;26.10;99.90
12460;DHT22;6295;49.452;8.466;2023-09-12T11:31:34;26.30;99.90
12460;DHT22;6295;49.452;8.466;2023-09-12T11:35:37;26.40;99.90
12460;DHT22;6295;49.452;8.466;2023-09-12T11:39:43;26.60;99.90
12460;DHT22;6295;49.452;8.466;2023-09-12T11:47:49;26.80;99.90
12460;DHT22;6295;49.452;8.466;2023-09-12T11:51:52;26.90;99.90
12460;DHT22;6295;49.452;8.466;2023-09-12T11:55:59;27.00;99.90
12460;DHT22;6295;49.452;8.466;2023-09-12T12:00:06;27.10;99.90
12460;DHT22;6295;49.452;8.466;2023-09-12T12:04:11;27.10;99.90
12460;DHT22;6295;49.452;8.466;2023-09-12T12:08:15;27.20;99.90
12460;DHT22;6295;49.452;8.466;2023-09-12T12:12:19;27.20;99.90
12460;DHT22;6295;49.452;8.466;2023-09-12T12:16:21;27.30;99.90
12460;DHT22;6295;49.452;8.466;2023-09-12T12:20:23;27.30;99.90
12460;DHT22;6295;49.452;8.466;2023-09-12T12:24:25;27.40;99.90
12460;DHT22;6295;49.452;8.466;2023-09-12T12:28:40;27.40;99.90
12460;DHT22;6295;49.452;8.466;2023-09-12T12:32:43;27.40;99.90
12460;DHT22;6295;49.452;8.466;2023-09-12T12:40:49;27.40;99.90
12460;DHT22;6295;49.452;8.466;2023-09-12T12:44:54;27.40;99.90
12460;DHT22;6295;49.452;8.466;2023-09-12T12:48:56;27.50;99.90
12460;DHT22;6295;49.452;8.466;2023-09-12T12:52:58;27.60;99.90
12460;DHT22;6295;49.452;8.466;2023-09-12T12:57:01;27.70;99.90
12460;DHT22;6295;49.452;8.466;2023-09-12T13:01:04;27.70;99.90
12460;DHT22;6295;49.452;8.466;2023-09-12T13:05:20;27.80;99.90
12460;DHT22;6295;49.452;8.466;2023-09-12T13:13:25;28.00;99.90
12460;DHT22;6295;49.452;8.466;2023-09-12T13:17:28;28.10;99.90
12460;DHT22;6295;49.452;8.466;2023-09-12T13:21:30;28.20;99.90
12460;DHT22;6295;49.452;8.466;2023-09-12T13:29:35;28.30;99.90
12460;DHT22;6295;49.452;8.466;2023-09-12T13:33:42;28.30;99.90
12460;DHT22;6295;49.452;8.466;2023-09-12T13:37:44;28.50;99.90
12460;DHT22;6295;49.452;8.466;2023-09-12T13:41:48;28.50;99.90
12460;DHT22;6295;49.452;8.466;2023-09-12T13:45:51;28.60;99.90
12460;DHT22;6295;49.452;8.466;2023-09-12T13:49:54;28.60;99.90
12460;DHT22;6295;49.452;8.466;2023-09-12T13:53:57;28.70;99.90
12460;DHT22;6295;49.452;8.466;2023-09-12T13:57:59;28.70;99.90
12460;DHT22;6295;49.452;8.466;2023-09-12T14:02:01;28.70;99.90
12460;DHT22;6295;49.452;8.466;2023-09-12T14:06:05;28.80;99.90
12460;DHT22;6295;49.452;8.466;2023-09-12T14:10:07;28.80;99.90
12460;DHT22;6295;49.452;8.466;2023-09-12T14:14:10;28.70;99.90
12460;DHT22;6295;49.452;8.466;2023-09-12T14:18:12;28.70;99.90
12460;DHT22;6295;49.452;8.466;2023-09-12T14:22:16;28.60;99.90
12460;DHT22;6295;49.452;8.466;2023-09-12T14:26:18;28.60;99.90
12460;DHT22;6295;49.452;8.466;2023-09-12T14:30:20;28.70;99.90
12460;DHT22;6295;49.452;8.466;2023-09-12T14:34:23;28.90;99.90
12460;DHT22;6295;49.452;8.466;2023-09-12T14:38:28;29.00;99.90
12460;DHT22;6295;49.452;8.466;2023-09-12T14:42:31;29.10;99.90
12460;DHT22;6295;49.452;8.466;2023-09-12T14:46:33;29.20;99.90
12460;DHT22;6295;49.452;8.466;2023-09-12T14:50:35;29.20;99.90
12460;DHT22;6295;49.452;8.466;2023-09-12T14:54:38;29.30;99.90
12460;DHT22;6295;49.452;8.466;2023-09-12T14:58:40;29.30;99.90
12460;DHT22;6295;49.452;8.466;2023-09-12T15:02:43;29.30;99.90
12460;DHT22;6295;49.452;8.466;2023-09-12T15:06:45;29.40;99.90
12460;DHT22;6295;49.452;8.466;2023-09-12T15:10:48;29.50;99.90
12460;DHT22;6295;49.452;8.466;2023-09-12T15:14:50;29.50;99.90
12460;DHT22;6295;49.452;8.466;2023-09-12T15:18:53;29.50;99.90
12460;DHT22;6295;49.452;8.466;2023-09-12T15:22:55;29.50;99.90
12460;DHT22;6295;49.452;8.466;2023-09-12T15:26:58;29.60;99.90
12460;DHT22;6295;49.452;8.466;2023-09-12T15:31:00;29.60;99.90
12460;DHT22;6295;49.452;8.466;2023-09-12T15:35:06;29.70;99.90
12460;DHT22;6295;49.452;8.466;2023-09-12T15:39:11;29.70;99.90
12460;DHT22;6295;49.452;8.466;2023-09-12T15:43:15;29.70;99.90
12460;DHT22;6295;49.452;8.466;2023-09-12T15:47:18;29.70;99.90
12460;DHT22;6295;49.452;8.466;2023-09-12T15:51:22;29.70;99.90
12460;DHT22;6295;49.452;8.466;2023-09-12T15:55:25;29.70;99.90
12460;DHT22;6295;49.452;8.466;2023-09-12T15:59:31;29.60;99.90
12460;DHT22;6295;49.452;8.466;2023-09-12T16:03:35;29.60;99.90
12460;DHT22;6295;49.452;8.466;2023-09-12T16:11:39;29.30;99.90
12460;DHT22;6295;49.452;8.466;2023-09-12T16:15:45;29.30;99.90
12460;DHT22;6295;49.452;8.466;2023-09-12T16:19:47;29.20;99.90
12460;DHT22;6295;49.452;8.466;2023-09-12T16:23:53;29.10;99.90
12460;DHT22;6295;49.452;8.466;2023-09-12T16:27:59;28.90;99.90
12460;DHT22;6295;49.452;8.466;2023-09-12T16:32:05;28.80;99.90
12460;DHT22;6295;49.452;8.466;2023-09-12T16:36:10;28.70;99.90
12460;DHT22;6295;49.452;8.466;2023-09-12T16:40:15;28.60;99.90
12460;DHT22;6295;49.452;8.466;2023-09-12T16:44:19;28.50;99.90
12460;DHT22;6295;49.452;8.466;2023-09-12T16:48:26;28.40;99.90
12460;DHT22;6295;49.452;8.466;2023-09-12T16:52:31;28.20;99.90
12460;DHT22;6295;49.452;8.466;2023-09-12T16:56:35;28.10;99.90
12460;DHT22;6295;49.452;8.466;2023-09-12T17:00:42;27.90;99.90
12460;DHT22;6295;49.452;8.466;2023-09-12T17:04:48;27.70;99.90
12460;DHT22;6295;49.452;8.466;2023-09-12T17:12:56;27.30;99.90
12460;DHT22;6295;49.452;8.466;2023-09-12T17:17:02;27.20;99.90
12460;DHT22;6295;49.452;8.466;2023-09-12T17:21:07;27.10;99.90
12460;DHT22;6295;49.452;8.466;2023-09-12T17:25:09;27.00;99.90
12460;DHT22;6295;49.452;8.466;2023-09-12T17:29:14;26.90;99.90
12460;DHT22;6295;49.452;8.466;2023-09-12T17:33:16;26.70;99.90
12460;DHT22;6295;49.452;8.466;2023-09-12T17:37:20;26.60;99.90
12460;DHT22;6295;49.452;8.466;2023-09-12T17:41:25;26.40;99.90
12460;DHT22;6295;49.452;8.466;2023-09-12T17:45:28;26.20;99.90
12460;DHT22;6295;49.452;8.466;2023-09-12T17:49:30;26.00;99.90
12460;DHT22;6295;49.452;8.466;2023-09-12T17:53:34;25.80;99.90
12460;DHT22;6295;49.452;8.466;2023-09-12T17:57:36;25.70;99.90
12460;DHT22;6295;49.452;8.466;2023-09-12T18:01:39;25.40;99.90
12460;DHT22;6295;49.452;8.466;2023-09-12T18:05:43;25.20;99.90
12460;DHT22;6295;49.452;8.466;2023-09-12T18:09:50;25.20;99.90
12460;DHT22;6295;49.452;8.466;2023-09-12T18:13:54;25.00;99.90
12460;DHT22;6295;49.452;8.466;2023-09-12T18:17:56;25.10;99.90
12460;DHT22;6295;49.452;8.466;2023-09-12T18:21:58;25.00;99.90
12460;DHT22;6295;49.452;8.466;2023-09-12T18:26:02;24.90;99.90
12460;DHT22;6295;49.452;8.466;2023-09-12T18:30:07;24.80;99.90
12460;DHT22;6295;49.452;8.466;2023-09-12T18:34:10;24.70;99.90
12460;DHT22;6295;49.452;8.466;2023-09-12T18:38:13;24.60;99.90
12460;DHT22;6295;49.452;8.466;2023-09-12T18:42:18;24.50;99.90
12460;DHT22;6295;49.452;8.466;2023-09-12T18:46:20;24.40;99.90
12460;DHT22;6295;49.452;8.466;2023-09-12T18:50:23;24.40;99.90
12460;DHT22;6295;49.452;8.466;2023-09-12T18:54:26;24.30;99.90
